createdAt,value
2019-05-19T00:00:09.883Z,96874.38
2019-05-19T00:02:40.801Z,96870.67
2019-05-19T00:05:10.712Z,96877.77
2019-05-19T00:07:40.211Z,96874.66
2019-05-19T00:10:09.739Z,96873.67
2019-05-19T00:12:39.188Z,96877.22
2019-05-19T00:15:08.891Z,96883.56
2019-05-19T00:17:38.351Z,96889.95
2019-05-19T00:20:08.509Z,96892.45
2019-05-19T00:22:37.955Z,96880.92
2019-05-19T00:25:07.558Z,96884.26
2019-05-19T00:27:37.007Z,96888.45
2019-05-19T00:30:07.910Z,96890.13
2019-05-19T00:32:37.369Z,96877.61
2019-05-19T00:35:07.479Z,96879.69
2019-05-19T00:37:36.931Z,96869.77
2019-05-19T00:40:08.084Z,96869.28
2019-05-19T00:42:37.600Z,96870.11
2019-05-19T00:45:11.143Z,96868.50
2019-05-19T00:47:40.667Z,96861.08
2019-05-19T00:50:10.610Z,96856.50
2019-05-19T00:52:40.143Z,96861.31
2019-05-19T00:55:09.733Z,96857.75
2019-05-19T00:57:39.534Z,96852.34
2019-05-19T01:00:10.291Z,96848.84
2019-05-19T01:02:39.733Z,96854.48
2019-05-19T01:05:09.335Z,96858.81
2019-05-19T01:07:38.946Z,96842.53
2019-05-19T01:10:09.206Z,96844.66
2019-05-19T01:12:38.671Z,96846.52
2019-05-19T01:15:09.445Z,96842.23
2019-05-19T01:17:38.923Z,96832.23
2019-05-19T01:20:08.794Z,96826.03
2019-05-19T01:22:38.324Z,96825.84
2019-05-19T01:25:08.575Z,96820.68
2019-05-19T01:27:38.028Z,96821.28
2019-05-19T01:30:12.189Z,96823.03
2019-05-19T01:32:41.632Z,96817.30
2019-05-19T01:35:11.229Z,96808.25
2019-05-19T01:37:40.679Z,96806.42
2019-05-19T01:40:10.211Z,96812.09
2019-05-19T01:42:39.687Z,96808.13
2019-05-19T01:45:10.197Z,96803.18
2019-05-19T01:47:39.882Z,96800.55
2019-05-19T01:50:18.433Z,96799.07
2019-05-19T01:52:41.628Z,96789.56
2019-05-19T01:55:12.315Z,96787.88
2019-05-19T01:57:41.776Z,96784.45
2019-05-19T02:00:11.937Z,96782.32
2019-05-19T02:02:41.383Z,96772.95
2019-05-19T02:05:11.137Z,96772.48
2019-05-19T02:07:41.175Z,96772.44
2019-05-19T02:10:10.937Z,96768.70
2019-05-19T02:12:40.470Z,96770.56
2019-05-19T02:15:11.720Z,96767.19
2019-05-19T02:17:41.174Z,96776.32
2019-05-19T02:20:11.344Z,96777.11
2019-05-19T02:22:40.785Z,96774.02
2019-05-19T02:25:10.703Z,96771.66
2019-05-19T02:27:40.221Z,96772.30
2019-05-19T02:30:11.482Z,96767.22
2019-05-19T02:32:40.946Z,96780.44
2019-05-19T02:35:10.624Z,96783.06
2019-05-19T02:37:40.085Z,96779.55
2019-05-19T02:40:10.270Z,96778.22
2019-05-19T02:42:41.965Z,96775.31
2019-05-19T02:45:13.319Z,96778.41
2019-05-19T02:47:44.433Z,96773.55
2019-05-19T02:50:14.209Z,96772.47
2019-05-19T02:52:47.056Z,96769.70
2019-05-19T02:55:16.953Z,96775.83
2019-05-19T02:57:48.718Z,96780.02
2019-05-19T03:00:21.423Z,96779.35
2019-05-19T03:02:50.875Z,96776.69
2019-05-19T03:05:20.390Z,96779.05
2019-05-19T03:07:49.838Z,96779.72
2019-05-19T03:10:19.369Z,96777.59
2019-05-19T03:12:48.824Z,96773.06
2019-05-19T03:15:18.268Z,96787.00
2019-05-19T03:17:47.728Z,96785.26
2019-05-19T03:20:17.178Z,96781.67
2019-05-19T03:22:46.640Z,96779.34
2019-05-19T03:25:16.160Z,96780.35
2019-05-19T03:27:45.646Z,96776.69
2019-05-19T03:30:31.187Z,96779.67
2019-05-19T03:33:05.025Z,96776.31
2019-05-19T03:35:34.546Z,96775.16
2019-05-19T03:38:04.124Z,96781.08
2019-05-19T03:40:33.586Z,96778.52
2019-05-19T03:43:03.038Z,96774.86
2019-05-19T03:45:32.563Z,96777.80
2019-05-19T03:48:02.012Z,96781.01
2019-05-19T03:50:31.464Z,96780.77
2019-05-19T03:53:00.951Z,96777.81
2019-05-19T03:55:30.413Z,96769.98
2019-05-19T03:57:59.864Z,96776.51
2019-05-19T04:00:29.307Z,96773.36
2019-05-19T04:02:58.763Z,96778.36
2019-05-19T04:05:28.224Z,96782.82
2019-05-19T04:07:57.672Z,96782.69
2019-05-19T04:10:27.122Z,96779.16
2019-05-19T04:12:56.581Z,96775.02
2019-05-19T04:15:26.030Z,96784.25
2019-05-19T04:17:55.475Z,96784.37
2019-05-19T04:20:24.978Z,96784.95
2019-05-19T04:22:54.390Z,96782.58
2019-05-19T04:25:23.859Z,96789.78
2019-05-19T04:27:53.314Z,96790.58
2019-05-19T04:30:22.994Z,96790.66
2019-05-19T04:32:52.443Z,96790.67
2019-05-19T04:35:21.889Z,96795.61
2019-05-19T04:37:51.351Z,96794.42
2019-05-19T04:40:20.817Z,96791.05
2019-05-19T04:42:50.265Z,96785.65
2019-05-19T04:45:19.786Z,96785.56
2019-05-19T04:47:49.250Z,96787.69
2019-05-19T04:50:20.277Z,96786.48
2019-05-19T04:52:49.731Z,96788.17
2019-05-19T04:55:19.190Z,96789.48
2019-05-19T04:57:48.634Z,96786.43
2019-05-19T05:00:18.220Z,96792.30
2019-05-19T05:02:47.682Z,96796.95
2019-05-19T05:05:17.123Z,96796.29
2019-05-19T05:07:46.741Z,96796.13
2019-05-19T05:10:16.471Z,96800.62
2019-05-19T05:12:45.954Z,96795.89
2019-05-19T05:15:16.207Z,96792.53
2019-05-19T05:17:45.654Z,96793.98
2019-05-19T05:20:15.255Z,96789.16
2019-05-19T05:22:44.719Z,96791.24
2019-05-19T05:25:14.371Z,96791.08
2019-05-19T05:27:43.822Z,96790.69
2019-05-19T05:30:13.450Z,96786.90
2019-05-19T05:32:42.878Z,96779.95
2019-05-19T05:35:12.458Z,96786.50
2019-05-19T05:37:41.924Z,96782.05
2019-05-19T05:40:12.014Z,96779.70
2019-05-19T05:42:41.467Z,96782.42
2019-05-19T05:45:11.327Z,96779.19
2019-05-19T05:47:40.773Z,96782.72
2019-05-19T05:50:10.378Z,96775.66
2019-05-19T05:52:39.824Z,96775.16
2019-05-19T05:55:09.794Z,96772.88
2019-05-19T05:57:39.247Z,96775.93
2019-05-19T06:00:10.070Z,96779.42
2019-05-19T06:02:39.525Z,96774.38
2019-05-19T06:05:09.518Z,96774.34
2019-05-19T06:07:38.982Z,96779.31
2019-05-19T06:10:09.145Z,96776.86
2019-05-19T06:12:38.590Z,96780.01
2019-05-19T06:15:08.488Z,96774.50
2019-05-19T06:17:37.939Z,96773.09
2019-05-19T06:20:08.859Z,96772.65
2019-05-19T06:22:54.754Z,96775.22
2019-05-19T06:25:10.032Z,96771.20
2019-05-19T06:27:39.482Z,96778.41
2019-05-19T06:30:09.378Z,96774.15
2019-05-19T06:32:46.505Z,96772.03
2019-05-19T06:35:16.083Z,96779.27
2019-05-19T06:37:45.545Z,96774.63
2019-05-19T06:40:15.398Z,96772.02
2019-05-19T06:42:45.031Z,96773.73
2019-05-19T06:45:15.012Z,96772.80
2019-05-19T06:47:44.465Z,96773.98
2019-05-19T06:50:14.831Z,96774.28
2019-05-19T06:52:44.276Z,96773.27
2019-05-19T06:55:13.820Z,96774.21
2019-05-19T06:57:43.368Z,96774.28
2019-05-19T07:00:14.750Z,96771.56
2019-05-19T07:02:44.214Z,96770.30
2019-05-19T07:05:13.798Z,96763.13
2019-05-19T07:07:43.496Z,96760.17
2019-05-19T07:10:13.390Z,96759.11
2019-05-19T07:12:42.836Z,96763.98
2019-05-19T07:15:12.810Z,96755.42
2019-05-19T07:17:42.256Z,96761.47
2019-05-19T07:20:11.793Z,96756.98
2019-05-19T07:22:41.252Z,96754.36
2019-05-19T07:25:10.927Z,96754.95
2019-05-19T07:27:40.398Z,96748.52
2019-05-19T07:30:10.981Z,96745.81
2019-05-19T07:32:40.432Z,96742.09
2019-05-19T07:35:11.109Z,96740.20
2019-05-19T07:37:40.552Z,96738.77
2019-05-19T07:40:10.664Z,96740.80
2019-05-19T07:42:40.122Z,96739.42
2019-05-19T07:45:10.483Z,96734.88
2019-05-19T07:47:39.949Z,96735.98
2019-05-19T07:50:09.470Z,96735.08
2019-05-19T07:52:38.939Z,96730.63
2019-05-19T07:55:08.594Z,96730.86
2019-05-19T07:57:38.054Z,96731.56
2019-05-19T08:00:09.420Z,96728.05
2019-05-19T08:02:39.047Z,96725.39
2019-05-19T08:05:08.594Z,96729.90
2019-05-19T08:07:38.172Z,96730.27
2019-05-19T08:10:08.507Z,96725.23
2019-05-19T08:12:37.967Z,96729.08
2019-05-19T08:15:10.462Z,96725.82
2019-05-19T08:17:39.962Z,96724.77
2019-05-19T08:20:09.691Z,96721.47
2019-05-19T08:22:39.130Z,96720.26
2019-05-19T08:25:09.006Z,96717.42
2019-05-19T08:27:38.452Z,96722.25
2019-05-19T08:30:08.713Z,96720.53
2019-05-19T08:32:38.176Z,96725.81
2019-05-19T08:35:08.247Z,96726.45
2019-05-19T08:37:37.711Z,96727.64
2019-05-19T08:40:07.236Z,96723.16
2019-05-19T08:42:36.693Z,96729.08
2019-05-19T08:45:08.126Z,96725.50
2019-05-19T08:47:37.596Z,96726.97
2019-05-19T08:50:08.451Z,96720.94
2019-05-19T08:52:37.915Z,96721.98
2019-05-19T08:55:08.174Z,96729.77
2019-05-19T08:57:37.647Z,96733.31
2019-05-19T09:00:07.791Z,96729.31
2019-05-19T09:02:37.235Z,96727.72
2019-05-19T09:05:07.936Z,96724.66
2019-05-19T09:07:37.406Z,96724.98
2019-05-19T09:10:08.955Z,96723.80
2019-05-19T09:12:38.764Z,96723.15
2019-05-19T09:15:08.495Z,96718.47
2019-05-19T09:17:37.939Z,96717.80
2019-05-19T09:20:07.739Z,96721.24
2019-05-19T09:22:37.192Z,96717.60
2019-05-19T09:25:09.959Z,96717.94
2019-05-19T09:27:39.499Z,96709.50
2019-05-19T09:30:12.016Z,96709.70
2019-05-19T09:32:41.460Z,96714.23
2019-05-19T09:35:11.333Z,96712.17
2019-05-19T09:37:43.082Z,96712.64
2019-05-19T09:40:12.947Z,96707.87
2019-05-19T09:42:42.478Z,96713.16
2019-05-19T09:45:11.995Z,96709.91
2019-05-19T09:47:42.009Z,96709.64
2019-05-19T09:50:13.542Z,96706.13
2019-05-19T09:52:43.058Z,96700.17
2019-05-19T09:55:13.123Z,96694.47
2019-05-19T09:57:42.660Z,96693.45
2019-05-19T10:00:13.973Z,96694.40
2019-05-19T10:02:43.441Z,96694.76
2019-05-19T10:05:13.127Z,96692.80
2019-05-19T10:07:42.567Z,96691.65
2019-05-19T10:10:16.141Z,96696.57
2019-05-19T10:12:45.585Z,96691.30
2019-05-19T10:15:15.384Z,96691.14
2019-05-19T10:17:44.848Z,96684.66
2019-05-19T10:20:15.199Z,96688.20
2019-05-19T10:22:44.659Z,96695.97
2019-05-19T10:25:22.926Z,96691.82
2019-05-19T10:27:45.511Z,96691.55
2019-05-19T10:30:16.785Z,96688.71
2019-05-19T10:32:46.308Z,96687.00
2019-05-19T10:35:16.035Z,96678.22
2019-05-19T10:37:45.478Z,96678.11
2019-05-19T10:40:15.160Z,96681.92
2019-05-19T10:42:44.867Z,96685.86
2019-05-19T10:45:14.349Z,96685.87
2019-05-19T10:47:43.789Z,96678.66
2019-05-19T10:50:13.378Z,96676.86
2019-05-19T10:52:42.845Z,96681.44
2019-05-19T10:55:12.648Z,96677.86
2019-05-19T10:57:42.167Z,96672.39
2019-05-19T11:00:12.236Z,96675.90
2019-05-19T11:02:41.699Z,96672.99
2019-05-19T11:05:11.603Z,96674.27
2019-05-19T11:07:41.067Z,96675.61
2019-05-19T11:10:11.387Z,96672.97
2019-05-19T11:12:40.856Z,96674.41
2019-05-19T11:15:10.510Z,96673.86
2019-05-19T11:17:39.959Z,96673.14
2019-05-19T11:20:09.492Z,96663.95
2019-05-19T11:22:38.937Z,96664.81
2019-05-19T11:25:08.516Z,96665.34
2019-05-19T11:27:37.983Z,96665.14
2019-05-19T11:30:08.472Z,96663.55
2019-05-19T11:32:37.903Z,96664.03
2019-05-19T11:35:08.176Z,96664.24
2019-05-19T11:37:37.624Z,96658.23
2019-05-19T11:40:07.155Z,96659.70
2019-05-19T11:42:36.860Z,96661.73
2019-05-19T11:45:07.849Z,96655.80
2019-05-19T11:47:37.314Z,96659.09
2019-05-19T11:50:07.824Z,96658.56
2019-05-19T11:52:37.313Z,96652.28
2019-05-19T11:55:07.184Z,96648.47
2019-05-19T11:57:36.627Z,96648.76
2019-05-19T12:00:09.593Z,96645.38
2019-05-19T12:02:39.037Z,96641.52
2019-05-19T12:05:08.793Z,96653.30
2019-05-19T12:07:38.191Z,96645.52
2019-05-19T12:10:07.979Z,96640.03
2019-05-19T12:12:37.477Z,96641.66
2019-05-19T12:15:08.988Z,96642.02
2019-05-19T12:17:38.448Z,96649.92
2019-05-19T12:20:08.141Z,96648.95
2019-05-19T12:22:37.619Z,96647.32
2019-05-19T12:25:07.491Z,96640.90
2019-05-19T12:27:36.988Z,96642.22
2019-05-19T12:30:10.728Z,96633.21
2019-05-19T12:32:40.191Z,96631.96
2019-05-19T12:35:09.781Z,96640.07
2019-05-19T12:37:39.226Z,96628.75
2019-05-19T12:40:08.923Z,96624.53
2019-05-19T12:42:38.376Z,96626.42
2019-05-19T12:45:11.982Z,96635.64
2019-05-19T12:47:41.471Z,96632.84
2019-05-19T12:50:11.720Z,96637.44
2019-05-19T12:52:41.195Z,96631.48
2019-05-19T12:55:11.177Z,96633.19
2019-05-19T12:57:40.690Z,96631.82
2019-05-19T13:00:10.662Z,96622.20
2019-05-19T13:02:40.137Z,96622.64
2019-05-19T13:05:09.909Z,96617.73
2019-05-19T13:07:39.356Z,96624.08
2019-05-19T13:10:09.238Z,96629.08
2019-05-19T13:12:38.714Z,96635.31
2019-05-19T13:15:09.066Z,96633.02
2019-05-19T13:17:38.557Z,96634.78
2019-05-19T13:20:08.267Z,96627.11
2019-05-19T13:22:37.772Z,96630.56
2019-05-19T13:25:07.468Z,96624.00
2019-05-19T13:27:36.927Z,96624.51
2019-05-19T13:30:08.023Z,96622.27
2019-05-19T13:32:37.452Z,96628.00
2019-05-19T13:35:08.473Z,96623.77
2019-05-19T13:37:37.935Z,96626.24
2019-05-19T13:40:07.634Z,96623.90
2019-05-19T13:42:37.079Z,96632.37
2019-05-19T13:45:07.991Z,96641.92
2019-05-19T13:47:37.495Z,96635.75
2019-05-19T13:50:08.799Z,96643.96
2019-05-19T13:52:38.391Z,96637.16
2019-05-19T13:55:09.378Z,96637.03
2019-05-19T13:57:38.862Z,96633.84
2019-05-19T14:00:08.893Z,96639.03
2019-05-19T14:02:38.459Z,96646.67
2019-05-19T14:05:08.193Z,96637.63
2019-05-19T14:07:37.639Z,96640.91
2019-05-19T14:10:08.681Z,96636.23
2019-05-19T14:12:38.093Z,96637.74
2019-05-19T14:15:08.694Z,96630.10
2019-05-19T14:17:38.308Z,96632.80
2019-05-19T14:20:10.944Z,96632.00
2019-05-19T14:22:40.406Z,96629.84
2019-05-19T14:25:10.253Z,96622.22
2019-05-19T14:27:39.701Z,96616.45
2019-05-19T14:30:10.242Z,96624.49
2019-05-19T14:32:39.753Z,96619.69
2019-05-19T14:35:09.425Z,96616.72
2019-05-19T14:37:38.915Z,96617.71
2019-05-19T14:40:09.252Z,96620.34
2019-05-19T14:42:56.185Z,96616.66
2019-05-19T14:45:25.760Z,96618.66
2019-05-19T14:47:55.218Z,96614.57
2019-05-19T14:50:24.698Z,96622.27
2019-05-19T14:52:54.157Z,96633.45
2019-05-19T14:55:23.688Z,96621.03
2019-05-19T14:57:53.137Z,96618.77
2019-05-19T15:00:23.640Z,96629.25
2019-05-19T15:02:53.098Z,96621.91
2019-05-19T15:05:22.560Z,96615.82
2019-05-19T15:07:52.019Z,96614.81
2019-05-19T15:10:21.604Z,96613.96
2019-05-19T15:12:51.045Z,96621.53
2019-05-19T15:15:20.796Z,96614.77
2019-05-19T15:17:50.232Z,96611.69
2019-05-19T15:20:20.031Z,96607.95
2019-05-19T15:22:49.503Z,96620.02
2019-05-19T15:25:18.964Z,96626.90
2019-05-19T15:27:59.724Z,96626.67
2019-05-19T15:30:19.672Z,96626.38
2019-05-19T15:32:49.309Z,96635.31
2019-05-19T15:35:19.002Z,96621.12
2019-05-19T15:37:48.447Z,96616.61
2019-05-19T15:40:18.280Z,96611.84
2019-05-19T15:42:47.813Z,96608.42
2019-05-19T15:45:18.196Z,96601.87
2019-05-19T15:47:47.897Z,96597.87
2019-05-19T15:50:19.044Z,96599.00
2019-05-19T15:52:48.507Z,96587.77
2019-05-19T15:55:18.040Z,96585.05
2019-05-19T15:57:47.558Z,96584.70
2019-05-19T16:00:17.353Z,96594.17
2019-05-19T16:02:46.812Z,96600.26
2019-05-19T16:05:16.352Z,96597.12
2019-05-19T16:07:45.805Z,96600.67
2019-05-19T16:10:16.576Z,96594.73
2019-05-19T16:12:46.098Z,96596.94
2019-05-19T16:15:15.847Z,96595.40
2019-05-19T16:17:45.309Z,96607.17
2019-05-19T16:20:15.196Z,96620.41
2019-05-19T16:22:44.924Z,96641.60
2019-05-19T16:25:14.519Z,96646.70
2019-05-19T16:27:43.980Z,96651.52
2019-05-19T16:30:13.712Z,96647.53
2019-05-19T16:32:43.230Z,96646.98
2019-05-19T16:35:12.904Z,96654.44
2019-05-19T16:37:42.378Z,96658.98
2019-05-19T16:40:12.103Z,96656.11
2019-05-19T16:42:41.570Z,96664.66
2019-05-19T16:45:12.843Z,96670.99
2019-05-19T16:47:42.300Z,96670.49
2019-05-19T16:50:11.983Z,96671.17
2019-05-19T16:52:41.496Z,96666.97
2019-05-19T16:55:21.801Z,96674.81
2019-05-19T16:57:51.290Z,96681.37
2019-05-19T17:00:21.147Z,96678.21
2019-05-19T17:02:50.593Z,96681.11
2019-05-19T17:05:20.311Z,96691.00
2019-05-19T17:07:49.746Z,96699.06
2019-05-19T17:10:19.543Z,96697.64
2019-05-19T17:12:49.011Z,96713.89
2019-05-19T17:15:18.878Z,96720.36
2019-05-19T17:17:48.723Z,96716.73
2019-05-19T17:20:19.495Z,96714.14
2019-05-19T17:22:49.322Z,96717.11
2019-05-19T17:25:18.861Z,96722.95
2019-05-19T17:27:48.313Z,96716.95
2019-05-19T17:30:18.908Z,96688.22
2019-05-19T17:32:48.362Z,96708.48
2019-05-19T17:35:18.146Z,96709.99
2019-05-19T17:37:47.594Z,96712.09
2019-05-19T17:40:17.290Z,96704.95
2019-05-19T17:42:46.753Z,96706.88
2019-05-19T17:45:16.907Z,96702.56
2019-05-19T17:47:46.354Z,96707.39
2019-05-19T17:50:32.675Z,96705.91
2019-05-19T17:53:02.556Z,96707.29
2019-05-19T17:55:36.111Z,96705.49
2019-05-19T17:58:06.408Z,96697.76
2019-05-19T18:00:41.309Z,96697.59
2019-05-19T18:03:11.317Z,96701.00
2019-05-19T18:05:40.784Z,96696.56
2019-05-19T18:08:10.235Z,96693.53
2019-05-19T18:10:39.765Z,96698.31
2019-05-19T18:13:09.223Z,96695.66
2019-05-19T18:15:38.667Z,96700.45
2019-05-19T18:18:08.381Z,96697.72
2019-05-19T18:20:37.978Z,96690.16
2019-05-19T18:23:07.424Z,96692.07
2019-05-19T18:25:36.950Z,96693.37
2019-05-19T18:28:06.412Z,96690.86
2019-05-19T18:30:35.861Z,96689.68
2019-05-19T18:33:05.548Z,96694.02
2019-05-19T18:35:35.006Z,96689.63
2019-05-19T18:38:04.532Z,96686.25
2019-05-19T18:40:33.983Z,96679.60
2019-05-19T18:43:03.460Z,96676.95
2019-05-19T18:45:32.949Z,96672.00
2019-05-19T18:48:02.602Z,96661.95
2019-05-19T18:50:32.053Z,96666.31
2019-05-19T18:53:01.523Z,96659.32
2019-05-19T18:55:30.963Z,96653.49
2019-05-19T18:58:00.447Z,96656.27
2019-05-19T19:00:40.000Z,96658.50
2019-05-19T19:03:09.541Z,96663.79
2019-05-19T19:05:39.001Z,96656.27
2019-05-19T19:08:08.450Z,96662.78
2019-05-19T19:10:37.934Z,96662.69
2019-05-19T19:13:07.582Z,96670.44
2019-05-19T19:15:37.032Z,96668.52
2019-05-19T19:18:06.496Z,96675.72
2019-05-19T19:20:36.134Z,96676.84
2019-05-19T19:23:05.910Z,96689.80
2019-05-19T19:25:35.415Z,96689.89
2019-05-19T19:28:04.948Z,96695.16
2019-05-19T19:30:34.405Z,96703.50
2019-05-19T19:33:03.916Z,96715.21
2019-05-19T19:35:39.368Z,96721.23
2019-05-19T19:38:04.581Z,96729.48
2019-05-19T19:40:34.326Z,96733.63
2019-05-19T19:43:03.973Z,96740.45
2019-05-19T19:45:33.420Z,96746.69
2019-05-19T19:48:02.884Z,96751.22
2019-05-19T19:50:32.352Z,96754.45
2019-05-19T19:53:04.536Z,96755.28
2019-05-19T19:55:34.004Z,96752.32
2019-05-19T19:58:03.478Z,96754.70
2019-05-19T20:00:39.784Z,96748.45
2019-05-19T20:03:09.567Z,96753.46
2019-05-19T20:05:39.711Z,96747.63
2019-05-19T20:08:09.558Z,96748.27
2019-05-19T20:10:39.088Z,96741.48
2019-05-19T20:13:08.635Z,96747.63
2019-05-19T20:15:38.369Z,96748.05
2019-05-19T20:18:07.950Z,96748.81
2019-05-19T20:20:37.433Z,96758.10
2019-05-19T20:23:06.895Z,96758.02
2019-05-19T20:25:37.280Z,96759.34
2019-05-19T20:28:07.042Z,96752.20
2019-05-19T20:30:36.937Z,96750.43
2019-05-19T20:33:06.645Z,96750.37
2019-05-19T20:35:36.199Z,96749.97
2019-05-19T20:38:05.790Z,96747.77
2019-05-19T20:40:35.446Z,96752.09
2019-05-19T20:43:04.992Z,96758.41
2019-05-19T20:45:34.954Z,96758.41
2019-05-19T20:48:04.412Z,96750.84
2019-05-19T20:50:33.875Z,96747.77
2019-05-19T20:53:03.329Z,96756.47
2019-05-19T20:55:32.777Z,96753.61
2019-05-19T20:58:02.244Z,96751.66
2019-05-19T21:00:31.787Z,96743.40
2019-05-19T21:03:01.306Z,96745.99
2019-05-19T21:05:30.770Z,96754.59
2019-05-19T21:08:00.239Z,96751.95
2019-05-19T21:10:29.690Z,96757.76
2019-05-19T21:12:59.136Z,96757.97
2019-05-19T21:15:28.602Z,96748.88
2019-05-19T21:17:58.044Z,96751.84
2019-05-19T21:20:27.560Z,96752.75
2019-05-19T21:22:57.035Z,96754.44
2019-05-19T21:25:26.473Z,96742.84
2019-05-19T21:27:55.926Z,96744.63
2019-05-19T21:30:25.398Z,96746.02
2019-05-19T21:32:54.837Z,96740.18
2019-05-19T21:35:24.287Z,96740.16
2019-05-19T21:37:53.756Z,96739.05
2019-05-19T21:40:23.217Z,96737.55
2019-05-19T21:42:52.684Z,96738.58
2019-05-19T21:45:22.151Z,96737.11
2019-05-19T21:47:51.605Z,96747.76
2019-05-19T21:50:21.099Z,96747.27
2019-05-19T21:52:50.516Z,96744.84
2019-05-19T21:55:19.967Z,96741.06
2019-05-19T21:57:49.521Z,96739.78
2019-05-19T22:00:20.979Z,96740.30
2019-05-19T22:02:50.447Z,96737.31
2019-05-19T22:05:19.901Z,96735.52
2019-05-19T22:07:57.077Z,96733.77
2019-05-19T22:10:26.520Z,96735.63
2019-05-19T22:12:56.093Z,96737.77
2019-05-19T22:15:25.681Z,96743.35
2019-05-19T22:17:55.129Z,96746.04
2019-05-19T22:20:24.607Z,96749.46
2019-05-19T22:22:54.052Z,96753.45
2019-05-19T22:25:23.499Z,96753.47
2019-05-19T22:27:52.973Z,96746.27
2019-05-19T22:30:22.557Z,96745.86
2019-05-19T22:32:52.023Z,96753.84
2019-05-19T22:35:21.545Z,96754.15
2019-05-19T22:37:51.029Z,96750.02
2019-05-19T22:40:20.633Z,96753.69
2019-05-19T22:42:50.077Z,96747.41
2019-05-19T22:45:19.546Z,96750.16
2019-05-19T22:47:48.993Z,96742.70
2019-05-19T22:50:18.661Z,96738.81
2019-05-19T22:52:48.179Z,96744.83
2019-05-19T22:55:17.692Z,96741.44
2019-05-19T22:57:47.143Z,96739.68
2019-05-19T23:00:17.916Z,96737.95
2019-05-19T23:02:47.447Z,96734.16
2019-05-19T23:05:17.207Z,96730.53
2019-05-19T23:07:46.655Z,96730.34
2019-05-19T23:10:16.632Z,96734.84
2019-05-19T23:12:46.078Z,96724.68
2019-05-19T23:15:16.132Z,96725.73
2019-05-19T23:17:45.622Z,96717.09
2019-05-19T23:20:16.021Z,96721.66
2019-05-19T23:22:45.488Z,96723.72
2019-05-19T23:25:15.004Z,96719.66
2019-05-19T23:27:44.471Z,96717.44
2019-05-19T23:30:14.057Z,96721.78
2019-05-19T23:32:43.504Z,96716.22
2019-05-19T23:35:13.209Z,96709.37
2019-05-19T23:37:42.656Z,96716.87
2019-05-19T23:40:12.332Z,96715.55
2019-05-19T23:42:41.851Z,96719.30
2019-05-19T23:45:11.569Z,96713.72
2019-05-19T23:47:41.012Z,96713.35
2019-05-19T23:50:10.911Z,96714.27
2019-05-19T23:52:40.362Z,96714.94
2019-05-19T23:55:10.183Z,96720.80
2019-05-19T23:57:39.631Z,96724.28
